Saint John's, Antigua and Barbuda
Current Conditions -  °F | °C
As of 7:00 AM on Thursday 23 Oct 2014 (Local Time) from TAPA Reporting Station
Broken Clouds Broken Clouds  
Wind Chill: 82°   Ceiling: 1600
Heat Index: 89°   Visibility: 6mi
Dew Point: 75°   Wind: 8mph
Humidity: 79%   Direction: 90°E
Pressure: 29.91"   Gusts: NA
Location:  17.11°N, 61.85°W
Report Text: TAPA 231100Z 09007KT 9999 BKN016 28/24 Q1013 TEMPO SHRABKN015
Loading
Personal Weather Stations






























Interactive Weather Map
Tropical Storm Tracking
New forecast layout! Learn more

10-Day Weather Forecast

Advertisements
Track Severe Weather on mobile